Albion, Michigan
Current Conditions -  °F | °C
As of 12:33 PM on Saturday 25 Oct 2014 (Local Time) from KRMY Reporting Station
Overcast Overcast  
Wind Chill: 61°   Ceiling: 1900
Heat Index: 61°   Visibility: 10mi
Dew Point: 53°   Wind: 13mph
Humidity: 74%   Direction: 270°W
Pressure: 29.85"   Gusts: 22mph
Location:  42.25°N, 84.75°W
Report Text: KRMY 251633Z AUTO 27011G19KT 10SM OVC019 16/12 A2985 RMK AO2 T01630117
Loading
Personal Weather Stations






























Interactive Weather Map
Tropical Storm Tracking
New forecast layout! Learn more

10-Day Weather Forecast

Advertisements
Track Severe Weather on mobile